Time;durP1;ratioP1;P1;durP2;ratioP2;P2;SDS_P1;SDS_P2;PMS_P1;PMS_P2;Temp;Humidity;BMP_temperature;BMP_pressure;BME280_temperature;BME280_humidity;BME280_pressure;Samples;Min_cycle;Max_cycle;Signal;HPM_P1;HPM_P2
2023/05/16 00:00:27;;;;;;;56.72;33.25;;;;;;;14.85;83.70;99556.75;3132584;28;20102;-71
2023/05/16 00:01:59;;;;;;;56.72;31.20;;;;;;;14.84;83.66;99555.06;3132383;28;20252;-71
2023/05/16 00:03:31;;;;;;;57.90;32.90;;;;;;;14.83;83.52;99546.38;3133760;28;20088;-71
2023/05/16 00:05:06;;;;;;;62.17;32.92;;;;;;;14.80;83.67;99543.97;3133029;28;20049;-71
2023/05/16 00:06:38;;;;;;;59.78;32.78;;;;;;;14.83;83.69;99549.00;3132535;28;20080;-71
2023/05/16 00:08:09;;;;;;;58.45;32.47;;;;;;;14.81;83.84;99552.66;3132385;28;20118;-72
2023/05/16 00:09:40;;;;;;;58.08;33.17;;;;;;;14.83;83.86;99551.63;3132633;28;20412;-71
2023/05/16 00:11:12;;;;;;;52.80;31.25;;;;;;;14.84;83.84;99552.44;3132765;28;20041;-70
2023/05/16 00:12:43;;;;;;;57.55;33.33;;;;;;;14.78;83.67;99546.66;3132420;28;20110;-70
2023/05/16 00:14:18;;;;;;;61.13;34.00;;;;;;;14.83;83.83;99553.41;3132271;28;20504;-71
2023/05/16 00:15:48;;;;;;;58.80;33.22;;;;;;;14.70;84.05;99528.00;3132279;28;20502;-70
2023/05/16 00:17:20;;;;;;;54.53;32.33;;;;;;;14.81;84.04;99544.78;3137587;28;20049;-71
2023/05/16 00:18:51;;;;;;;61.25;33.85;;;;;;;14.79;84.27;99540.50;3132472;28;20115;-71
2023/05/16 00:20:23;;;;;;;53.80;33.33;;;;;;;14.79;84.10;99545.75;3132395;28;20877;-71
2023/05/16 00:21:55;;;;;;;62.47;35.55;;;;;;;14.80;84.13;99538.72;3132476;28;20049;-71
2023/05/16 00:23:27;;;;;;;61.92;35.17;;;;;;;14.81;84.29;99539.56;3132663;28;20056;-71
2023/05/16 00:24:58;;;;;;;53.33;31.20;;;;;;;14.81;84.23;99544.78;3132258;28;20438;-71
2023/05/16 00:26:30;;;;;;;69.57;34.25;;;;;;;14.79;84.11;99540.50;3131863;28;20569;-70
2023/05/16 00:28:02;;;;;;;60.25;35.63;;;;;;;14.76;84.24;99535.47;3132492;28;20575;-71
2023/05/16 00:29:35;;;;;;;64.70;33.92;;;;;;;14.79;84.30;99547.53;3132331;28;20057;-71
2023/05/16 00:31:07;;;;;;;59.65;33.70;;;;;;;14.78;84.46;99543.22;3137871;28;20056;-71
2023/05/16 00:32:39;;;;;;;56.92;34.35;;;;;;;14.78;84.31;99543.22;3135938;28;20145;-70
2023/05/16 00:34:11;;;;;;;57.45;34.08;;;;;;;14.74;84.46;99534.72;3132415;28;20041;-70
2023/05/16 00:35:43;;;;;;;57.10;34.38;;;;;;;14.76;84.33;99539.88;3131980;28;20049;-70
2023/05/16 00:37:15;;;;;;;59.53;34.22;;;;;;;14.74;84.55;99539.97;3127289;28;20088;-70
2023/05/16 00:38:46;;;;;;;63.88;34.67;;;;;;;14.73;84.52;99538.28;3125753;28;20114;-70
2023/05/16 00:40:18;;;;;;;61.85;34.75;;;;;;;14.73;84.75;99538.28;3132104;28;20103;-71
2023/05/16 00:41:50;;;;;;;62.97;34.97;;;;;;;14.71;84.75;99534.09;3132211;28;20082;-71
2023/05/16 00:43:21;;;;;;;65.30;34.70;;;;;;;14.73;84.57;99534.81;3132049;28;20061;-71
2023/05/16 00:44:54;;;;;;;55.75;33.80;;;;;;;14.73;84.89;99537.44;3129820;28;20086;-71
2023/05/16 00:46:25;;;;;;;61.25;33.95;;;;;;;14.70;84.51;99533.25;3132308;28;20053;-71
2023/05/16 00:47:57;;;;;;;61.03;34.88;;;;;;;14.70;84.78;99528.00;3132096;28;20067;-70
2023/05/16 00:49:29;;;;;;;55.72;34.03;;;;;;;14.67;84.86;99530.84;3131949;28;20071;-70
2023/05/16 00:51:02;;;;;;;66.32;35.90;;;;;;;14.69;84.77;99534.19;3132694;28;20080;-70
2023/05/16 00:52:33;;;;;;;59.83;34.08;;;;;;;14.67;84.86;99522.97;3131771;28;20060;-70
2023/05/16 00:54:05;;;;;;;59.38;34.40;;;;;;;14.66;84.97;99521.28;3131069;28;20048;-70
2023/05/16 00:55:38;;;;;;;60.45;34.83;;;;;;;14.65;84.95;99519.59;3132008;28;20049;-70
2023/05/16 00:57:10;;;;;;;58.00;34.17;;;;;;;14.61;84.93;99515.53;3132427;28;20052;-70
2023/05/16 00:58:42;;;;;;;64.75;36.05;;;;;;;14.64;84.99;99525.81;3133564;28;20458;-70
2023/05/16 01:00:18;;;;;;;60.28;33.63;;;;;;;14.63;85.17;99521.47;3135910;28;20114;-70
2023/05/16 01:01:50;;;;;;;54.90;34.67;;;;;;;14.61;85.25;99520.75;3131757;28;20049;-70
2023/05/16 01:03:22;;;;;;;60.92;34.78;;;;;;;14.58;85.36;99518.31;3132299;28;20064;-70
2023/05/16 01:04:55;;;;;;;58.75;33.63;;;;;;;14.57;85.51;99524.50;3132212;28;20115;-70
2023/05/16 01:06:27;;;;;;;62.97;35.03;;;;;;;14.54;85.28;99517.69;3132069;28;20052;-70
2023/05/16 01:07:59;;;;;;;53.95;32.70;;;;;;;14.43;85.28;99501.78;3132122;28;20061;-70
2023/05/16 01:09:32;;;;;;;63.75;36.10;;;;;;;14.52;85.37;99513.47;3132076;28;20126;-71
2023/05/16 01:11:11;;;;;;;60.77;36.20;;;;;;;14.48;85.50;99523.31;3132007;28;20049;-71
2023/05/16 01:12:55;;;;;;;56.78;33.92;;;;;;;14.47;85.62;99521.63;3132447;28;20429;-71
2023/05/16 01:14:38;;;;;;;59.92;34.15;;;;;;;14.46;85.52;99524.34;3127932;28;20629;-72
2023/05/16 01:16:19;;;;;;;59.95;34.05;;;;;;;14.45;85.45;99520.06;3130361;28;20041;-71
2023/05/16 01:17:57;;;;;;;61.95;34.53;;;;;;;14.45;85.63;99514.81;3131983;28;20123;-71
2023/05/16 01:19:42;;;;;;;58.75;35.72;;;;;;;14.44;85.70;99516.59;3131793;28;20088;-70
2023/05/16 01:21:20;;;;;;;59.45;35.70;;;;;;;14.42;85.79;99517.63;3132178;28;20071;-70
2023/05/16 01:23:07;;;;;;;62.65;34.63;;;;;;;14.39;85.79;99510.81;3131740;28;20099;-70
2023/05/16 01:24:57;;;;;;;63.22;34.95;;;;;;;14.37;85.91;99509.22;3131839;28;20053;-70
2023/05/16 01:26:31;;;;;;;58.63;35.20;;;;;;;14.34;86.26;99510.25;3132283;28;20060;-69
2023/05/16 01:28:03;;;;;;;57.28;35.05;;;;;;;14.33;86.21;99504.19;3131842;28;20056;-69
2023/05/16 01:29:35;;;;;;;68.13;35.80;;;;;;;14.33;86.17;99508.59;3131989;28;20071;-69
2023/05/16 01:31:06;;;;;;;58.25;34.63;;;;;;;14.33;86.34;99504.19;3131669;28;20548;-69
2023/05/16 01:32:38;;;;;;;57.60;34.90;;;;;;;14.33;86.34;99505.97;3131982;28;20045;-69
2023/05/16 01:34:10;;;;;;;59.83;34.60;;;;;;;14.32;86.41;99502.53;3131936;28;20056;-69
2023/05/16 01:35:54;;;;;;;59.03;35.10;;;;;;;14.28;86.37;99501.03;3131569;28;20068;-70
2023/05/16 01:37:34;;;;;;;57.05;34.33;;;;;;;14.23;86.27;99484.78;3125594;28;20430;-70
2023/05/16 01:39:21;;;;;;;64.35;34.88;;;;;;;14.30;86.21;99496.53;3128563;28;20110;-70
2023/05/16 01:40:55;;;;;;;64.18;35.15;;;;;;;14.29;86.49;99496.66;3133370;28;20060;-69
2023/05/16 01:42:35;;;;;;;70.65;36.47;;;;;;;14.16;86.40;99482.66;3133358;28;20072;-70
2023/05/16 01:44:11;;;;;;;78.78;37.58;;;;;;;14.29;86.55;99500.09;3131612;28;20057;-70
2023/05/16 01:45:51;;;;;;;63.53;35.10;;;;;;;14.30;86.64;99493.91;3131440;28;20045;-70
2023/05/16 01:47:26;;;;;;;61.50;37.13;;;;;;;14.31;86.50;99494.75;3131834;28;20052;-70
2023/05/16 01:49:04;;;;;;;61.95;36.60;;;;;;;14.29;86.62;99491.41;3131827;28;20056;-70
2023/05/16 01:50:41;;;;;;;63.42;35.15;;;;;;;14.31;86.59;99495.59;3131636;28;20067;-71
2023/05/16 01:52:20;;;;;;;59.35;34.83;;;;;;;14.20;86.34;99464.03;3131857;28;20136;-71
2023/05/16 01:53:52;;;;;;;62.30;36.10;;;;;;;14.32;86.40;99489.41;3131618;28;20041;-70
2023/05/16 01:55:33;;;;;;;67.57;35.95;;;;;;;14.33;86.50;99491.09;3137321;28;20134;-69
2023/05/16 01:57:07;;;;;;;63.58;36.08;;;;;;;14.29;86.26;99476.53;3133644;28;20053;-70
2023/05/16 01:58:41;;;;;;;;;;;;;;;14.27;86.42;99473.16;3132058;28;20049;-70
2023/05/16 02:00:13;;;;;;;60.15;34.83;;;;;;;14.28;86.34;99471.38;3131554;28;20286;-70
2023/05/16 02:01:45;;;;;;;64.47;35.78;;;;;;;14.28;86.46;99472.22;3131765;28;20483;-69
2023/05/16 02:03:17;;;;;;;89.10;36.95;;;;;;;14.28;86.58;99466.97;3131687;28;20166;-69
2023/05/16 02:04:49;;;;;;;64.40;37.40;;;;;;;14.28;86.50;99463.53;3132467;28;20110;-71
2023/05/16 02:06:21;;;;;;;65.80;36.63;;;;;;;14.29;86.53;99459.97;3133931;28;20095;-71
2023/05/16 02:07:53;;;;;;;66.78;35.78;;;;;;;14.29;86.44;99457.34;3133960;28;20140;-71
2023/05/16 02:09:24;;;;;;;65.75;35.75;;;;;;;14.18;86.53;99442.34;3134209;28;20056;-71
2023/05/16 02:10:56;;;;;;;65.47;36.78;;;;;;;14.28;86.54;99453.88;3133653;28;20561;-71
2023/05/16 02:12:28;;;;;;;65.43;36.90;;;;;;;14.27;86.54;99457.44;3134020;28;20130;-71
2023/05/16 02:14:01;;;;;;;58.88;35.55;;;;;;;14.27;86.76;99454.00;3133805;28;20049;-71
2023/05/16 02:15:33;;;;;;;66.22;36.65;;;;;;;14.26;86.66;99454.94;3127128;28;20115;-71
2023/05/16 02:17:05;;;;;;;65.60;36.25;;;;;;;14.26;86.66;99458.41;3133493;28;20044;-72
2023/05/16 02:18:37;;;;;;;60.95;35.40;;;;;;;14.25;86.60;99456.69;3133763;28;20060;-71
2023/05/16 02:20:10;;;;;;;66.90;35.92;;;;;;;14.23;86.67;99452.53;3133686;28;20060;-72
2023/05/16 02:21:42;;;;;;;62.15;35.85;;;;;;;14.20;86.69;99452.72;3121485;28;20168;-71
2023/05/16 02:23:14;;;;;;;67.35;37.90;;;;;;;14.24;86.71;99462.06;3135918;28;20550;-71
2023/05/16 02:24:45;;;;;;;68.55;36.53;;;;;;;14.26;86.60;99460.19;3135017;28;20576;-71
2023/05/16 02:26:16;;;;;;;72.50;37.65;;;;;;;14.23;86.89;99458.59;3133522;28;20099;-70
2023/05/16 02:27:49;;;;;;;64.70;37.17;;;;;;;14.02;86.84;99425.94;3133572;28;20470;-70
2023/05/16 02:29:22;;;;;;;65.40;36.05;;;;;;;14.15;86.84;99439.09;3130626;28;20442;-70
2023/05/16 02:30:57;;;;;;;71.57;37.50;;;;;;;14.22;86.63;99449.03;3129656;28;20458;-70
2023/05/16 02:32:29;;;;;;;73.38;36.53;;;;;;;14.21;86.84;99446.53;3133507;28;20218;-70
2023/05/16 02:34:02;;;;;;;63.58;36.38;;;;;;;14.23;86.96;99452.53;3133532;28;20643;-70
2023/05/16 02:35:34;;;;;;;69.13;38.43;;;;;;;14.22;87.05;99448.22;3133633;28;20083;-70
2023/05/16 02:37:06;;;;;;;62.40;37.00;;;;;;;14.20;87.16;99444.88;3132194;28;20366;-70
2023/05/16 02:38:37;;;;;;;64.65;36.10;;;;;;;14.20;87.16;99452.72;3140464;28;20106;-70
2023/05/16 02:40:11;;;;;;;72.70;36.47;;;;;;;14.17;87.03;99437.19;3130130;28;20049;-70
2023/05/16 02:41:42;;;;;;;64.28;36.70;;;;;;;14.20;87.04;99439.63;3134362;28;20045;-71
2023/05/16 02:43:14;;;;;;;63.22;35.75;;;;;;;14.21;87.09;99438.69;3141574;28;20048;-70
2023/05/16 02:44:46;;;;;;;66.00;36.25;;;;;;;14.21;87.15;99438.69;3133315;28;20474;-71
2023/05/16 02:46:22;;;;;;;60.08;35.95;;;;;;;13.99;86.94;99405.19;3132897;28;20076;-71
2023/05/16 02:47:54;;;;;;;67.72;35.63;;;;;;;14.19;87.18;99433.53;3133626;28;20049;-71
2023/05/16 02:49:26;;;;;;;60.50;36.13;;;;;;;14.18;87.09;99433.66;3133412;28;20045;-71
2023/05/16 02:50:57;;;;;;;69.80;36.75;;;;;;;14.17;87.10;99434.56;3133060;28;20454;-71
2023/05/16 02:52:29;;;;;;;64.53;36.92;;;;;;;14.14;87.13;99425.16;3145770;28;20568;-71
2023/05/16 02:54:00;;;;;;;63.50;35.53;;;;;;;14.11;87.25;99428.81;3133457;28;20049;-71
2023/05/16 02:55:32;;;;;;;64.53;36.78;;;;;;;14.15;87.13;99429.44;3133178;28;20060;-71
2023/05/16 02:57:04;;;;;;;57.53;34.13;;;;;;;14.15;87.00;99432.06;3133289;28;20075;-71
2023/05/16 02:58:35;;;;;;;70.03;36.40;;;;;;;14.16;87.17;99438.13;3133114;28;20049;-70
2023/05/16 03:00:10;;;;;;;63.72;35.60;;;;;;;14.17;86.92;99440.66;3133172;28;20102;-71
2023/05/16 03:01:42;;;;;;;66.22;35.75;;;;;;;14.10;87.13;99429.75;3129568;28;20060;-71
2023/05/16 03:03:13;;;;;;;68.38;37.15;;;;;;;14.17;87.07;99453.75;3133232;28;20115;-71
2023/05/16 03:04:44;;;;;;;71.28;35.30;;;;;;;14.19;86.89;99464.13;3133004;28;20045;-70
2023/05/16 03:06:15;;;;;;;62.40;35.50;;;;;;;14.18;86.85;99472.94;3136666;28;20510;-71
2023/05/16 03:07:47;;;;;;;69.03;36.47;;;;;;;14.15;87.05;99462.66;3133283;28;20044;-71
2023/05/16 03:09:18;;;;;;;61.15;36.85;;;;;;;14.07;86.90;99448.28;3132851;28;20045;-70
2023/05/16 03:10:50;;;;;;;61.03;36.40;;;;;;;14.19;86.93;99464.13;3133089;28;20056;-70
2023/05/16 03:12:22;;;;;;;65.53;36.15;;;;;;;14.17;87.04;99461.63;3133176;28;20072;-70
2023/05/16 03:13:54;;;;;;;71.15;36.10;;;;;;;14.16;87.12;99462.53;3132918;28;20061;-70
2023/05/16 03:15:27;;;;;;;64.30;36.53;;;;;;;14.16;86.92;99462.53;3127248;28;20053;-70
2023/05/16 03:16:59;;;;;;;67.35;37.15;;;;;;;14.15;86.92;99467.91;3133320;28;20056;-72
2023/05/16 03:18:31;;;;;;;62.60;36.60;;;;;;;14.15;87.03;99470.50;3132810;28;20055;-71
2023/05/16 03:20:04;;;;;;;60.53;34.53;;;;;;;14.09;87.04;99461.28;3136389;28;20501;-70
2023/05/16 03:21:34;;;;;;;58.20;35.20;;;;;;;14.15;87.06;99463.50;3132944;28;20083;-70
2023/05/16 03:23:07;;;;;;;69.53;35.90;;;;;;;14.15;87.15;99463.50;3133114;28;20506;-70
2023/05/16 03:24:39;;;;;;;66.10;37.13;;;;;;;14.15;87.09;99467.91;3132980;28;20048;-70
2023/05/16 03:26:10;;;;;;;66.72;35.83;;;;;;;14.08;87.39;99459.59;3132738;28;20084;-70
2023/05/16 03:27:41;;;;;;;64.10;37.50;;;;;;;14.17;87.24;99473.84;3132876;28;20110;-70
2023/05/16 03:29:14;;;;;;;70.43;38.42;;;;;;;14.17;87.25;99482.56;3133343;28;20041;-72
2023/05/16 03:30:46;;;;;;;65.07;36.42;;;;;;;14.19;87.43;99474.59;3132519;28;20052;-72
2023/05/16 03:32:18;;;;;;;75.35;36.97;;;;;;;14.18;87.25;99467.69;3132523;28;20051;-72
2023/05/16 03:33:50;;;;;;;77.80;39.03;;;;;;;14.15;87.43;99455.63;3137926;28;20045;-72
2023/05/16 03:35:23;;;;;;;68.97;35.83;;;;;;;14.05;87.49;99450.16;3135359;28;20103;-71
2023/05/16 03:36:55;;;;;;;65.03;36.55;;;;;;;14.13;87.33;99462.75;3130518;28;20091;-71
2023/05/16 03:38:27;;;;;;;68.93;37.50;;;;;;;14.11;87.40;99460.25;3129228;28;20446;-71
2023/05/16 03:39:59;;;;;;;71.93;37.08;;;;;;;14.12;87.59;99471.56;3132660;28;20497;-71
2023/05/16 03:41:31;;;;;;;64.47;36.60;;;;;;;14.07;87.47;99457.91;3132535;28;20477;-71
2023/05/16 03:43:03;;;;;;;59.70;35.95;;;;;;;14.18;87.52;99479.00;3132566;28;20041;-71
2023/05/16 03:44:35;;;;;;;70.03;37.85;;;;;;;14.19;87.70;99488.53;3132619;28;20532;-71
2023/05/16 03:46:07;;;;;;;77.53;38.55;;;;;;;14.20;87.78;99481.53;3132669;28;20076;-71
2023/05/16 03:47:39;;;;;;;70.32;38.08;;;;;;;14.19;87.74;99480.66;3135683;28;20045;-71
2023/05/16 03:49:11;;;;;;;67.80;36.10;;;;;;;14.21;87.60;99480.59;3140944;28;20481;-71
2023/05/16 03:50:42;;;;;;;64.47;36.35;;;;;;;14.22;87.87;99483.09;3132633;28;20131;-71
2023/05/16 03:52:13;;;;;;;64.57;38.30;;;;;;;14.21;87.70;99477.97;3133161;28;20109;-71
2023/05/16 03:53:45;;;;;;;65.30;37.35;;;;;;;14.10;87.64;99455.09;3132429;28;20156;-71
2023/05/16 03:55:16;;;;;;;69.57;38.92;;;;;;;14.27;87.81;99482.81;3132427;28;20049;-71
2023/05/16 03:56:48;;;;;;;69.93;40.85;;;;;;;14.20;87.85;99460.59;3132218;28;20053;-71
2023/05/16 03:58:20;;;;;;;66.80;39.00;;;;;;;14.27;87.88;99472.31;3132498;28;20548;-71
2023/05/16 03:59:51;;;;;;;70.75;38.40;;;;;;;14.19;87.77;99462.34;3131979;28;20049;-71
2023/05/16 04:01:24;;;;;;;65.80;38.05;;;;;;;14.27;87.93;99472.31;3132845;28;20110;-71
2023/05/16 04:02:55;;;;;;;63.40;36.35;;;;;;;14.28;87.78;99479.22;3130414;28;20061;-71
2023/05/16 04:04:27;;;;;;;70.57;38.53;;;;;;;14.29;87.78;99471.28;3129779;28;20121;-71
2023/05/16 04:05:59;;;;;;;64.93;37.03;;;;;;;14.21;87.82;99447.38;3132305;28;20163;-73
2023/05/16 04:07:30;;;;;;;70.75;39.15;;;;;;;14.31;88.00;99461.53;3132261;28;20699;-72
2023/05/16 04:09:02;;;;;;;69.20;39.63;;;;;;;14.36;87.84;99463.03;3132625;28;20063;-72
2023/05/16 04:10:34;;;;;;;68.90;38.80;;;;;;;14.39;87.97;99466.28;3130862;28;20106;-71
2023/05/16 04:12:07;;;;;;;73.07;38.83;;;;;;;14.39;87.90;99462.81;3132474;28;20269;-72
2023/05/16 04:13:38;;;;;;;70.93;38.43;;;;;;;14.42;87.87;99465.25;3132222;28;20053;-71
2023/05/16 04:15:09;;;;;;;73.65;38.42;;;;;;;14.45;87.94;99465.03;3125533;28;20639;-70
2023/05/16 04:16:43;;;;;;;71.65;40.03;;;;;;;14.47;87.76;99464.00;3132223;28;20059;-71
2023/05/16 04:18:15;;;;;;;72.07;38.17;;;;;;;14.49;87.79;99453.41;3132077;28;20045;-70
2023/05/16 04:19:46;;;;;;;75.75;39.58;;;;;;;14.49;87.78;99456.00;3132400;28;20052;-71
2023/05/16 04:21:18;;;;;;;69.18;38.13;;;;;;;14.52;87.75;99461.94;3131705;28;20719;-71
2023/05/16 04:22:50;;;;;;;65.97;37.15;;;;;;;14.52;87.94;99461.94;3131991;28;20045;-70
2023/05/16 04:24:25;;;;;;;66.13;36.50;;;;;;;14.52;87.84;99455.84;3131940;28;20524;-72
2023/05/16 04:25:58;;;;;;;68.30;37.30;;;;;;;14.48;87.58;99462.22;3132276;28;20438;-72
2023/05/16 04:27:30;;;;;;;72.80;38.92;;;;;;;14.50;87.74;99457.72;3131522;28;20056;-74
2023/05/16 04:29:02;;;;;;;67.35;35.70;;;;;;;14.51;87.35;99456.75;3131927;28;20087;-72
2023/05/16 04:30:34;;;;;;;65.47;35.13;;;;;;;14.45;87.01;99446.69;3132197;28;20053;-70
2023/05/16 04:32:08;;;;;;;69.07;37.25;;;;;;;14.51;86.71;99454.13;3126859;28;20045;-69
2023/05/16 04:33:40;;;;;;;72.30;37.45;;;;;;;14.48;87.01;99449.94;3127655;28;20111;-67
2023/05/16 04:35:12;;;;;;;73.25;38.20;;;;;;;14.48;86.89;99463.03;3132138;28;20486;-67
2023/05/16 04:36:42;;;;;;;67.90;37.65;;;;;;;14.48;86.57;99463.03;3131671;28;20052;-67
2023/05/16 04:38:15;;;;;;;73.90;41.08;;;;;;;14.29;86.58;99428.56;3129728;28;20075;-74
2023/05/16 04:39:46;;;;;;;113.40;60.72;;;;;;;14.49;86.65;99466.50;3132019;28;20059;-72
2023/05/16 04:41:18;;;;;;;76.07;44.75;;;;;;;14.52;86.55;99477.66;3131953;28;20063;-70
2023/05/16 04:42:50;;;;;;;75.60;41.78;;;;;;;14.54;86.65;99482.78;3132342;28;20442;-70
2023/05/16 04:44:22;;;;;;;65.95;36.72;;;;;;;14.51;86.49;99470.72;3139577;28;20053;-75
2023/05/16 04:45:54;;;;;;;83.20;42.30;;;;;;;14.53;86.40;99474.09;3135615;28;20053;-71
2023/05/16 04:47:27;;;;;;;88.00;48.60;;;;;;;14.55;86.44;99476.59;3133688;28;20532;-72
2023/05/16 04:48:59;;;;;;;76.07;41.88;;;;;;;14.55;86.75;99477.47;3138507;28;20167;-71
2023/05/16 04:50:30;;;;;;;84.47;47.47;;;;;;;14.56;86.50;99475.69;3129193;28;20056;-71
2023/05/16 04:52:02;;;;;;;69.55;38.85;;;;;;;14.60;86.40;99474.53;3130181;28;20053;-69
2023/05/16 04:53:34;;;;;;;120.30;68.25;;;;;;;14.57;86.19;99466.88;3126694;28;20057;-69
2023/05/16 04:55:06;;;;;;;71.03;41.17;;;;;;;14.62;86.05;99482.28;3132028;28;20041;-72
2023/05/16 04:56:38;;;;;;;63.70;34.67;;;;;;;14.61;85.50;99475.34;3129289;28;20060;-68
2023/05/16 04:58:10;;;;;;;54.03;28.50;;;;;;;14.62;85.29;99477.06;3124926;28;20067;-70
2023/05/16 04:59:43;;;;;;;58.42;28.60;;;;;;;14.58;84.92;99476.38;3125453;28;20057;-70
2023/05/16 05:01:15;;;;;;;50.60;29.90;;;;;;;14.61;84.67;99476.22;3123978;28;20132;-70
2023/05/16 05:02:49;;;;;;;58.75;30.27;;;;;;;14.61;84.33;99475.34;3128763;28;20053;-70
2023/05/16 05:04:21;;;;;;;49.70;29.73;;;;;;;14.57;84.19;99469.47;3123926;28;20510;-67
2023/05/16 05:05:53;;;;;;;51.20;30.10;;;;;;;14.64;84.06;99483.00;3125121;28;20045;-68
2023/05/16 05:07:27;;;;;;;50.85;28.23;;;;;;;14.68;84.10;99487.94;3123987;28;20376;-69
2023/05/16 05:08:59;;;;;;;55.72;30.20;;;;;;;14.71;84.23;99485.13;3125315;28;20057;-69
2023/05/16 05:10:31;;;;;;;52.90;30.30;;;;;;;14.66;84.39;99474.09;3125669;28;20049;-68
2023/05/16 05:12:04;;;;;;;52.67;30.27;;;;;;;14.77;84.24;99487.31;3125833;28;20049;-68
2023/05/16 05:13:48;;;;;;;53.42;30.65;;;;;;;14.81;84.28;99487.13;3126812;28;20437;-68
2023/05/16 05:15:20;;;;;;;;;;;;;;;14.77;84.16;99489.94;3125271;28;20044;-70
2023/05/16 05:16:52;;;;;;;53.28;28.40;;;;;;;14.81;84.45;99482.72;3126283;28;19956;-69
2023/05/16 05:18:25;;;;;;;52.58;29.65;;;;;;;14.83;84.15;99483.47;3128572;28;20598;-71
2023/05/16 05:19:57;;;;;;;49.90;30.13;;;;;;;14.87;84.07;99476.22;3130304;28;20056;-68
2023/05/16 05:21:37;;;;;;;50.45;28.02;;;;;;;14.93;83.89;99481.03;3130826;28;20147;-70
2023/05/16 05:23:18;;;;;;;48.95;29.63;;;;;;;14.97;83.78;99472.03;3127745;28;20060;-68
2023/05/16 05:25:00;;;;;;;48.50;28.27;;;;;;;15.00;83.70;99479.69;3131548;28;20095;-66
2023/05/16 05:26:35;;;;;;;49.72;28.38;;;;;;;14.87;83.51;99447.38;3138049;28;20095;-67
2023/05/16 05:30:04;;;;;;;46.28;27.15;;;;;;;15.14;83.22;99478.72;3101058;28;20247;-68
2023/05/16 05:31:45;;;;;;;46.03;27.38;;;;;;;15.19;83.00;99477.47;3131779;28;20044;-67
2023/05/16 05:33:26;;;;;;;48.47;26.13;;;;;;;15.22;82.80;99487.75;3131831;28;20068;-67
2023/05/16 05:35:00;;;;;;;42.55;24.23;;;;;;;15.20;82.05;99476.53;3131515;28;20053;-69
2023/05/16 05:36:44;;;;;;;42.65;24.50;;;;;;;15.23;81.70;99486.81;3131823;28;20137;-70
2023/05/16 05:38:16;;;;;;;42.20;24.02;;;;;;;15.25;81.65;99486.69;3131381;28;20045;-69
2023/05/16 05:40:00;;;;;;;39.78;24.45;;;;;;;15.28;81.37;99480.41;3132564;28;20102;-68
2023/05/16 05:41:32;;;;;;;;;;;;;;;15.22;81.61;99472.00;3134214;28;20048;-67
2023/05/16 05:43:04;;;;;;;40.17;23.17;;;;;;;15.24;81.60;99469.28;3133962;28;19928;-67
2023/05/16 05:44:40;;;;;;;45.70;24.13;;;;;;;15.28;80.91;99465.50;3134242;28;20136;-67
2023/05/16 05:46:20;;;;;;;36.17;22.10;;;;;;;15.29;81.01;99461.91;3133556;28;20048;-66
2023/05/16 05:47:53;;;;;;;37.92;21.13;;;;;;;15.29;80.78;99461.09;3133686;28;20060;-69
2023/05/16 05:49:31;;;;;;;38.50;21.50;;;;;;;15.30;80.63;99458.38;3133307;28;20410;-70
2023/05/16 05:51:16;;;;;;;32.70;20.13;;;;;;;15.31;80.13;99453.94;3134358;28;20052;-67
2023/05/16 05:52:48;;;;;;;33.38;20.63;;;;;;;15.28;79.88;99464.66;3132947;28;20530;-69
2023/05/16 05:54:32;;;;;;;35.13;21.00;;;;;;;15.26;79.75;99475.25;3137920;28;20059;-67
2023/05/16 05:56:11;;;;;;;37.20;20.40;;;;;;;15.25;79.64;99476.19;3121837;28;20056;-67
2023/05/16 05:57:52;;;;;;;36.72;17.92;;;;;;;15.24;79.58;99472.75;3123903;28;20135;-70
2023/05/16 05:59:45;;;;;;;33.42;19.73;;;;;;;15.24;79.53;99467.50;3120743;28;20053;-67
2023/05/16 06:01:27;;;;;;;32.90;17.55;;;;;;;15.20;79.57;99471.28;3133878;28;20144;-64
2023/05/16 06:03:25;;;;;;;33.00;16.88;;;;;;;15.18;79.61;99459.22;3132699;28;20049;-63
2023/05/16 06:05:04;;;;;;;28.90;16.83;;;;;;;15.15;79.63;99462.06;3126935;28;20528;-64
2023/05/16 06:06:50;;;;;;;26.55;16.58;;;;;;;15.15;79.51;99457.66;3133845;28;20056;-70
2023/05/16 06:08:23;;;;;;;23.42;14.95;;;;;;;15.16;79.55;99451.44;3134089;28;20415;-65
2023/05/16 06:09:56;;;;;;;26.10;15.32;;;;;;;15.17;79.36;99453.16;3133841;28;20132;-66
2023/05/16 06:11:42;;;;;;;29.67;15.70;;;;;;;15.17;79.00;99468.88;3133688;28;20049;-67
2023/05/16 06:15:18;;;;;;;27.70;16.27;;;;;;;15.12;78.82;99470.97;3126634;28;20506;-64
2023/05/16 06:16:58;;;;;;;27.38;15.85;;;;;;;15.08;78.84;99452.94;3120833;28;20518;-70
2023/05/16 06:18:42;;;;;;;27.33;16.77;;;;;;;15.13;78.90;99463.94;3121646;28;20053;-67
2023/05/16 06:20:21;;;;;;;26.88;16.30;;;;;;;15.10;79.16;99487.75;3120873;28;20143;-66
2023/05/16 06:21:58;;;;;;;32.17;17.38;;;;;;;15.09;78.99;99496.59;3126141;28;20052;-66
2023/05/16 06:23:31;;;;;;;29.50;18.00;;;;;;;15.10;79.09;99503.50;3133650;28;20046;-65
2023/05/16 06:25:03;;;;;;;28.90;18.55;;;;;;;15.01;79.02;99460.38;3133802;28;20059;-65
2023/05/16 06:26:36;;;;;;;32.15;17.63;;;;;;;15.04;79.06;99446.22;3133873;28;20106;-62
2023/05/16 06:30:30;;;;;;;34.03;18.25;;;;;;;15.07;79.38;99464.38;3107653;28;20503;-67
2023/05/16 06:32:15;;;;;;;;;;;;;;;;;;;;;
2023/05/16 06:33:50;;;;;;;30.98;17.63;;;;;;;15.12;79.68;99470.97;3110054;28;20049;-66
2023/05/16 06:37:26;;;;;;;25.23;15.57;;;;;;;15.17;79.63;99483.75;3107808;28;20050;-64
2023/05/16 06:39:06;;;;;;;31.85;16.77;;;;;;;15.18;79.65;99457.44;3130384;28;20053;-65
2023/05/16 06:43:17;;;;;;;28.00;17.05;;;;;;;15.17;79.97;99441.78;3029818;29;20684;-65
2023/05/16 06:45:16;;;;;;;38.97;17.60;;;;;;;15.15;79.86;99451.56;3043113;29;20052;-67
2023/05/16 06:46:55;;;;;;;28.60;15.77;;;;;;;15.19;79.91;99463.50;3032521;29;20110;-67
2023/05/16 06:48:31;;;;;;;34.88;17.13;;;;;;;15.19;79.81;99456.47;3066341;29;20485;-67
2023/05/16 06:50:22;;;;;;;29.98;17.77;;;;;;;15.30;79.67;99460.16;3069143;28;20070;-65
2023/05/16 06:51:58;;;;;;;28.83;16.67;;;;;;;15.32;79.72;99445.13;3071076;29;20058;-66
2023/05/16 06:53:45;;;;;;;27.13;16.83;;;;;;;15.37;79.68;99448.28;3071197;29;20051;-67
2023/05/16 06:55:17;;;;;;;29.25;18.05;;;;;;;15.29;79.65;99433.06;3133161;28;20059;-64
2023/05/16 06:57:02;;;;;;;31.58;17.20;;;;;;;15.43;79.51;99447.84;3131384;28;20049;-63
2023/05/16 06:58:53;;;;;;;29.13;17.65;;;;;;;15.47;79.54;99439.66;3133313;28;20053;-63
2023/05/16 07:00:25;;;;;;;28.05;16.23;;;;;;;15.48;79.53;99428.19;3130747;28;20125;-65
2023/05/16 07:01:58;;;;;;;31.48;17.58;;;;;;;15.58;79.42;99445.91;3123429;28;20169;-68
2023/05/16 07:03:30;;;;;;;30.45;16.63;;;;;;;15.62;79.27;99456.09;3133179;28;20092;-66
2023/05/16 07:05:02;;;;;;;27.08;15.25;;;;;;;15.63;79.19;99442.00;3140400;28;20040;-65
2023/05/16 07:06:34;;;;;;;27.73;15.43;;;;;;;15.72;78.97;99452.84;3133934;28;20045;-65
2023/05/16 07:08:06;;;;;;;29.52;14.32;;;;;;;15.66;78.80;99430.44;3133337;28;20045;-64
2023/05/16 07:09:40;;;;;;;29.08;13.63;;;;;;;15.80;78.54;99442.63;3132550;28;20045;-64
2023/05/16 07:11:12;;;;;;;88.63;55.50;;;;;;;15.82;78.33;99452.03;3115722;28;20135;-65
2023/05/16 07:12:44;;;;;;;51.40;28.42;;;;;;;15.81;78.21;99436.41;3127177;28;20056;-68
2023/05/16 07:14:16;;;;;;;62.22;36.25;;;;;;;15.89;78.05;99440.16;3126599;28;20076;-68
2023/05/16 07:15:48;;;;;;;102.45;59.00;;;;;;;15.96;77.89;99442.34;3124917;28;20075;-68
2023/05/16 07:17:20;;;;;;;23.55;12.68;;;;;;;16.01;77.64;99441.06;3127899;28;20049;-66
2023/05/16 07:18:52;;;;;;;18.70;12.27;;;;;;;16.05;77.12;99429.34;3127271;28;20118;-63
2023/05/16 07:20:24;;;;;;;20.02;11.27;;;;;;;16.08;76.55;99413.38;3127726;28;20561;-65
2023/05/16 07:21:56;;;;;;;17.30;11.18;;;;;;;16.07;76.75;99406.44;3124738;28;20147;-66
2023/05/16 07:23:29;;;;;;;19.45;12.38;;;;;;;16.10;76.69;99405.38;3116729;28;20068;-65
2023/05/16 07:25:03;;;;;;;21.63;10.83;;;;;;;16.25;76.50;99420.00;3120397;28;20053;-66